Startpagina
METAR-TAF:

METAR-TAF

Vliegvelden :

Weno, Micronesië

breedte: 07-28N, lengte: 151-51E, hoogte: 3 m

Actueel weer

Dit bericht is 39 minuten geleden gemaakt, om 15:52 UTC
Wind 5 kt uit variabele richting
Temperatuur 26°C
Vochtigheid 94%
Druk 1008 hPa
Zicht: 24.1 km
Weinig wolken op 1300 ft, Cumulonimbus.
Gebroken wolken op 12000 ft
Geheel bewolkt op 28000 ft

METAR: PTKK 151552Z VRB05KT 15SM FEW013CB BKN120 OVC280 26/25 A2977 RMK SHRAE08 CB SE-SW SLP084 T02590247

Tijdstip: 02:31 (16:31 UTC)

Verwachting

Dit bericht is 5 uur en het 11 minuten geleden gemaakt, om 11:20 UTC
Verwachting geldig van 15 om 12 UTC tot 16 om 12 UTC
Wind 8 kt uit het westen
Zicht: 10 km
Verspreide wolken op 1400 ft
Gebroken wolken op 13000 ft
buien in de omgeving

TAF: PTKK 151120Z 1512/1612 28008KT P6SM VCSH SCT014 BKN130

Waarnemingen en weersverwachtingen van meer dan 4000 vliegvelden (METAR en TAF).

De beschikbare stations zijn de gele en rode punten op de kaart.

Ga met uw muis naar het station om de naam te zien.

Klik dan om waarnemingen en weersverwachtingen te zien.

kaart wijzigen: klik op de groene knoppen met een zwart kruis om in te zoomen, op de groene knop met een streepje om uit te zoomen of op de groene pijlen voor aangrenzende kaarten.


METAR-TAF: